Station: Cultana (Defence)

  Atmospheric Gas Attenuation - ITU Rec 676-11   --------------- db/100km ---------------
Date Time Temp RH % AH g/m3 Dew Point Wind Direction Speed kph Gust kph Barometer mB Rainfall Since 9am 24GHz 47GHz 76GHz 122GHz 134GHz 241GHz
03 07:50 15.7 64 8.56 8.9 30 33 1013.1 0 19.4 25.3 38.7 101.5 95.5 328.6
03 07:40 14.8 66 8.36 8.5 26 32 1013.1 0 19.0 25.2 38.3 100.6 94.0 323.3
03 07:30 14.5 67 8.33 8.5 28 35 1013.1 0 19.0 25.3 38.4 100.7 94.0 323.2
03 07:20 14.2 69 8.43 8.6 30 33 1013.1 0 19.2 25.5 38.9 102.1 95.7 328.9
03 07:10 14 69 8.32 8.4 26 33 1013.1 0 19.0 25.4 38.6 101.2 94.5 324.7
03 07:00 14 69 8.32 8.4 24 32 1013.1 0 19.0 25.4 38.6 101.2 94.5 324.7
03 06:50 13.8 69 8.22 8.2 26 33 1013.1 0 18.8 25.3 38.3 100.4 93.4 321.0
03 06:40 13.8 69 8.22 8.2 26 32 1013.1 0 18.8 25.3 38.3 100.4 93.4 321.0
03 06:30 13.7 69 8.17 8.1 30 39 1013.1 0 18.7 25.2 38.1 100.0 92.9 319.1
03 06:20 13.8 68 8.1 8 28 32 1013.1 0 18.5 25.1 37.8 99.1 91.8 315.5
03 06:10 13.7 68 8.05 7.9 32 39 1013.1 0 18.4 25.0 37.7 98.7 91.3 313.7
03 06:00 13.7 67 7.93 7.7 30 39 1013.1 0 18.2 24.8 37.2 97.5 89.8 308.2
03 05:50 13.7 65 7.7 7.4 32 37 1013.1 0 17.7 24.5 36.3 95.1 86.8 297.9
03 05:40 13.8 65 7.74 7.3 28 33 1013.1 0 17.8 24.5 36.4 95.4 87.2 299.3
03 05:30 13.9 64 7.67 7.2 28 35 1013.1 0 17.6 24.4 36.1 94.5 86.2 295.8
03 05:20 13.9 64 7.67 7.2 30 33 1013.1 0 17.6 24.4 36.1 94.5 86.2 295.8
03 05:00 14.1 63 7.65 7.2 30 37 1013.1 0 17.5 24.3 35.9 94.1 85.7 294.2
03 04:50 14.2 63 7.69 7.2 32 37 1013.1 0 17.6 24.3 36.0 94.4 86.1 295.6
03 04:40 14.2 63 7.69 7.2 30 39 1013.1 0 17.6 24.3 36.0 94.4 86.1 295.6
03 04:30 14.3 63 7.74 7.4 33 41 1013.1 0 17.7 24.4 36.2 94.8 86.7 297.4
03 04:20 14.4 66 8.16 8.1 32 39 1013.1 0 18.6 25.0 37.8 99.0 91.9 315.9
03 04:10 14.4 67 8.28 8.3 26 30 1013.1 0 18.9 25.2 38.2 100.3 93.5 321.3
03 04:00 14.6 66 8.26 8.3 37 48 1013.1 0 18.8 25.1 38.1 99.8 93.0 319.6
03 03:50 14.7 66 8.31 8.4 37 46 1013.1 0 18.9 25.2 38.2 100.2 93.5 321.4
03 03:40 14.8 68 8.61 8.9 33 41 1013.1 0 19.6 25.6 39.3 103.2 97.3 334.6
03 03:30 14.9 68 8.67 9.1 33 39 1013.1 0 19.7 25.7 39.5 103.7 97.9 337.0
03 03:20 14.9 67 8.54 8.8 32 41 1013.1 0 19.4 25.5 39.0 102.4 96.2 331.0
03 03:10 15 67 8.59 8.9 35 39 1013.1 0 19.5 25.5 39.2 102.8 96.8 332.9
03 03:00 15 68 8.72 9.1 32 43 1013.1 0 19.8 25.7 39.7 104.1 98.4 338.8
03 02:50 15.1 69 8.9 9.6 24 30 1013.1 0 20.2 26.0 40.3 105.9 100.7 346.6
03 02:40 15.1 69 8.9 9.6 39 44 1013.1 0 20.2 26.0 40.3 105.9 100.7 346.6
03 02:30 15.1 70 9.03 9.7 30 37 1013.1 0 20.4 26.2 40.9 107.3 102.4 352.6
03 02:20 15.1 69 8.9 9.6 28 33 1013.1 0 20.2 26.0 40.3 105.9 100.7 346.6
03 02:10 15.2 68 8.83 9.3 32 39 1013.1 0 20.0 25.9 40.0 105.0 99.6 343.0
03 02:00 15.3 65 8.49 8.8 33 44 1013.1 0 19.3 25.3 38.6 101.3 95.1 327.1
03 01:50 15.4 63 8.28 8.4 33 39 1013.1 0 18.8 24.9 37.7 99.0 92.3 317.3
03 01:40 15.5 61 8.06 8 33 39 1013.1 0 18.4 24.6 36.9 96.6 89.4 307.1
03 01:30 15.6 63 8.38 8.6 32 43 1013.1 0 19.0 25.0 38.0 99.8 93.3 320.9
03 01:20 15.7 65 8.7 9.3 30 39 1013.1 0 19.7 25.5 39.2 103.0 97.3 334.9
03 01:10 15.7 70 9.37 10.2 28 37 1013.1 0 21.1 26.6 41.9 110.1 106.1 365.6
03 01:00 15.7 71 9.5 10.5 28 35 1013.1 0 21.4 26.8 42.4 111.5 107.8 371.6
03 00:50 15.8 71 9.56 10.5 32 39 1013.1 0 21.5 26.9 42.6 112.0 108.4 373.9
03 00:40 15.8 71 9.56 10.7 33 39 1013.1 0 21.5 26.9 42.6 112.0 108.4 373.9
03 00:30 15.9 72 9.75 10.9 33 46 1013.1 0 21.9 27.1 43.3 113.9 110.8 382.3
03 00:20 16.1 72 9.87 11 37 44 1013.1 0 22.2 27.3 43.7 114.9 112.2 386.9
03 00:10 16.3 74 10.27 11.6 24 35 1013.1 0 23.0 27.9 45.2 119.0 117.2 404.7
03 00:00 16.1 74 10.14 11.5 24 32 1013.1 0 22.8 27.7 44.8 117.9 115.8 399.6
02 23:50 15.9 73 9.89 11.2 28 33 1013.1 0 22.2 27.4 43.9 115.4 112.7 388.8
02 23:40 15.8 73 9.83 11.1 30 33 1013.1 0 22.1 27.3 43.7 114.9 112.1 386.5
02 23:30 15.7 74 9.9 11.1 28 37 1013.1 0 22.3 27.4 44.1 115.8 113.1 390.3
02 23:20 15.6 72 9.57 10.7 26 32 1013.1 0 21.6 26.9 42.8 112.4 108.9 375.3
02 23:10 15.4 72 9.46 10.5 28 32 1013.1 0 21.3 26.8 42.4 111.5 107.7 371.1
02 23:00 15.5 72 9.52 10.5 28 39 1013.1 0 21.5 26.9 42.6 112.0 108.3 373.5
02 22:50 15.6 70 9.31 10.3 35 39 1013.1 0 21.0 26.5 41.7 109.6 105.4 363.2
02 22:40 15.7 70 9.37 10.2 33 39 1013.1 0 21.1 26.6 41.9 110.1 106.1 365.6
02 22:30 15.8 68 9.15 9.9 30 39 1013.1 0 20.7 26.2 41.0 107.6 103.0 355.0
02 22:20 15.9 65 8.8 9.5 30 35 1013.1 0 19.9 25.6 39.5 103.8 98.3 338.6
02 22:10 16.2 64 8.83 9.4 41 48 1013.1 0 20.0 25.6 39.5 103.7 98.4 338.7
02 22:00 16.4 62 8.65 9.1 37 44 1013.1 0 19.6 25.2 38.7 101.6 95.8 329.7
02 21:50 16.6 60 8.48 8.8 35 41 1013.1 0 19.2 24.9 38.0 99.6 93.4 321.3
02 21:40 17 59 8.54 8.9 32 39 1013.1 0 19.3 24.9 38.0 99.7 93.7 322.4
02 21:30 17.2 58 8.49 8.9 35 48 1013.1 0 19.2 24.8 37.7 98.9 92.8 319.4
02 21:20 17.3 57 8.4 8.9 39 50 1013.1 0 19.0 24.6 37.3 97.9 91.6 315.0
02 21:10 17.4 59 8.74 9.5 28 32 1013.1 0 19.7 25.1 38.6 101.2 95.7 329.6
02 21:00 17.5 59 8.8 9.4 32 41 1013.1 0 19.8 25.2 38.8 101.7 96.4 331.8
02 20:50 17.6 58 8.7 9.2 24 30 1013.1 0 19.6 25.0 38.3 100.6 95.0 327.0
02 20:40 17.8 56 8.5 8.9 28 30 1013.1 0 19.2 24.6 37.5 98.3 92.2 317.4
02 20:30 18.2 53 8.24 8.5 32 41 1013.1 0 18.6 24.1 36.3 95.2 88.6 304.6
02 20:20 18.5 54 8.54 9 32 37 1013.1 0 19.2 24.5 37.3 97.8 91.9 316.4
02 20:10 18.7 53 8.48 8.9 32 35 1013.1 0 19.1 24.3 37.0 97.0 90.9 313.0
02 20:00 18.9 52 8.42 8.8 35 44 1013.1 0 19.0 24.2 36.7 96.1 90.0 309.6
02 19:50 19.2 51 8.41 8.8 33 37 1013.1 0 18.9 24.1 36.5 95.7 89.5 308.0
02 19:40 19.4 50 8.34 8.7 35 41 1013.1 0 18.8 23.9 36.1 94.8 88.4 304.3
02 19:30 20 49 8.47 9 41 48 1013.1 0 19.0 24.0 36.4 95.3 89.3 307.5
02 19:20 19.8 50 8.54 9.3 39 46 1013.1 0 19.2 24.1 36.7 96.3 90.4 311.3
02 19:10 20.4 49 8.67 9.3 37 43 1013.1 0 19.4 24.2 36.9 96.8 91.3 314.5
02 19:00 20.8 49 8.87 9.7 37 46 1013.1 0 19.8 24.4 37.5 98.3 93.3 321.4
02 18:50 21.8 49 9.4 10.6 35 43 1013.1 0 20.9 24.9 38.9 102.3 98.5 339.8
02 18:40 22.1 46 8.98 10.2 41 44 1013.1 0 20.0 24.2 37.3 97.8 93.1 320.8
02 18:30 23.2 46 9.56 10.9 35 44 1013.1 0 21.2 24.7 38.9 102.1 98.7 340.6
02 18:20 23.8 42 9.03 10.4 41 44 1013.1 0 20.0 23.8 36.7 96.2 91.7 316.2
02 18:10 23.7 44 9.41 10.7 32 37 1013.1 0 20.8 24.4 38.1 100.0 96.3 332.3
02 18:00 23.9 46 9.95 11.6 35 44 1013.1 0 21.9 25.1 39.9 105.0 102.5 354.1
02 17:50 23.9 44 9.52 11.2 35 41 1013.1 0 21.0 24.5 38.4 100.8 97.3 336.0
02 17:40 24.6 43 9.68 11.5 33 37 1013.1 0 21.3 24.5 38.6 101.5 98.4 339.8
02 17:30 26 41 9.98 11.7 35 46 1013.1 0 21.9 24.6 39.0 102.6 100.2 346.2
02 17:20 25.9 42 10.17 12 37 46 1013.1 0 22.3 24.9 39.8 104.5 102.5 354.5
02 17:10 26 42 10.23 12.1 37 44 1013.1 0 22.4 25.0 39.9 105.0 103.1 356.5
02 17:00 26 42 10.23 12.1 35 44 1013.1 0 22.4 25.0 39.9 105.0 103.1 356.5
02 16:50 25.9 44 10.65 12.7 32 35 1013.1 0 23.3 25.6 41.5 109.2 108.3 374.5
02 16:40 25.7 44 10.53 12.5 33 37 1013.1 0 23.1 25.5 41.2 108.3 107.1 370.4
02 16:30 26.8 42 10.69 12.8 33 48 1013.1 0 23.3 25.4 41.2 108.4 107.5 372.0
02 16:20 26 44 10.71 12.8 24 28 1013.1 0 23.4 25.7 41.7 109.6 108.8 376.6
02 16:10 27 42 10.81 13 35 41 1013.1 0 23.6 25.5 41.5 109.2 108.7 376.1
02 16:00 26.1 44 10.77 12.9 33 44 1013.1 0 23.5 25.7 41.8 110.1 109.4 378.6
02 15:50 27 42 10.81 13 32 37 1013.1 0 23.6 25.5 41.5 109.2 108.7 376.1
02 15:40 27.6 41 10.91 13.5 32 37 1013.1 0 23.7 25.5 41.6 109.4 109.0 377.4
02 15:30 28.5 39 10.9 13.2 28 43 1013.1 0 23.7 25.2 41.1 108.1 107.7 372.8
02 15:20 27.6 39 10.38 12.7 24 28 1013.1 0 22.6 24.7 39.7 104.3 102.8 355.6
02 15:10 27.6 40 10.64 13.1 17 20 1013.1 0 23.2 25.1 40.6 106.8 105.9 366.3

Last Refresh: 03-Dec-2021 08:01:26

Bureau of Meteorology